sensor_id;sensor_type;location;lat;lon;timestamp;P1;durP1;ratioP1;P2;durP2;ratioP2
25341;SDS011;13298;48.792;9.154;2023-04-24T00:00:07;2.33;;;0.68;;
25341;SDS011;13298;48.792;9.154;2023-04-24T00:02:34;2.92;;;0.68;;
25341;SDS011;13298;48.792;9.154;2023-04-24T00:05:04;2.72;;;0.70;;
25341;SDS011;13298;48.792;9.154;2023-04-24T00:07:30;1.10;;;0.73;;
25341;SDS011;13298;48.792;9.154;2023-04-24T00:09:57;1.52;;;0.85;;
25341;SDS011;13298;48.792;9.154;2023-04-24T00:12:23;3.60;;;0.60;;
25341;SDS011;13298;48.792;9.154;2023-04-24T00:14:49;2.38;;;0.80;;
25341;SDS011;13298;48.792;9.154;2023-04-24T00:17:15;1.13;;;0.70;;
25341;SDS011;13298;48.792;9.154;2023-04-24T00:19:40;1.40;;;0.60;;
25341;SDS011;13298;48.792;9.154;2023-04-24T00:22:06;1.17;;;0.80;;
25341;SDS011;13298;48.792;9.154;2023-04-24T00:24:32;1.52;;;0.60;;
25341;SDS011;13298;48.792;9.154;2023-04-24T00:26:58;0.90;;;0.70;;
25341;SDS011;13298;48.792;9.154;2023-04-24T00:29:25;3.58;;;0.80;;
25341;SDS011;13298;48.792;9.154;2023-04-24T00:31:51;0.85;;;0.60;;
25341;SDS011;13298;48.792;9.154;2023-04-24T00:34:17;1.00;;;0.57;;
25341;SDS011;13298;48.792;9.154;2023-04-24T00:36:43;1.30;;;0.52;;
25341;SDS011;13298;48.792;9.154;2023-04-24T00:39:08;1.23;;;0.60;;
25341;SDS011;13298;48.792;9.154;2023-04-24T00:41:34;0.40;;;0.40;;
25341;SDS011;13298;48.792;9.154;2023-04-24T00:44:00;0.90;;;0.60;;
25341;SDS011;13298;48.792;9.154;2023-04-24T00:46:26;2.28;;;0.70;;
25341;SDS011;13298;48.792;9.154;2023-04-24T00:48:52;2.40;;;0.60;;
25341;SDS011;13298;48.792;9.154;2023-04-24T00:51:17;0.93;;;0.65;;
25341;SDS011;13298;48.792;9.154;2023-04-24T00:53:43;1.42;;;0.60;;
25341;SDS011;13298;48.792;9.154;2023-04-24T00:56:09;2.17;;;1.08;;
25341;SDS011;13298;48.792;9.154;2023-04-24T00:58:35;0.93;;;0.60;;
25341;SDS011;13298;48.792;9.154;2023-04-24T01:01:01;1.13;;;0.63;;
25341;SDS011;13298;48.792;9.154;2023-04-24T01:03:29;1.42;;;0.63;;
25341;SDS011;13298;48.792;9.154;2023-04-24T01:05:58;0.88;;;0.50;;
25341;SDS011;13298;48.792;9.154;2023-04-24T01:08:23;0.98;;;0.82;;
25341;SDS011;13298;48.792;9.154;2023-04-24T01:10:51;0.82;;;0.70;;
25341;SDS011;13298;48.792;9.154;2023-04-24T01:13:18;1.77;;;0.50;;
25341;SDS011;13298;48.792;9.154;2023-04-24T01:15:45;1.70;;;0.65;;
25341;SDS011;13298;48.792;9.154;2023-04-24T01:18:11;2.17;;;0.65;;
25341;SDS011;13298;48.792;9.154;2023-04-24T01:20:38;0.50;;;0.40;;
25341;SDS011;13298;48.792;9.154;2023-04-24T01:23:08;1.75;;;0.60;;
25341;SDS011;13298;48.792;9.154;2023-04-24T01:25:35;0.93;;;0.43;;
25341;SDS011;13298;48.792;9.154;2023-04-24T01:28:01;1.95;;;0.50;;
25341;SDS011;13298;48.792;9.154;2023-04-24T01:30:27;1.48;;;0.65;;
25341;SDS011;13298;48.792;9.154;2023-04-24T01:32:56;1.25;;;0.60;;
25341;SDS011;13298;48.792;9.154;2023-04-24T01:35:21;0.50;;;0.50;;
25341;SDS011;13298;48.792;9.154;2023-04-24T01:37:47;1.23;;;0.60;;
25341;SDS011;13298;48.792;9.154;2023-04-24T01:40:13;0.73;;;0.60;;
25341;SDS011;13298;48.792;9.154;2023-04-24T01:42:40;3.42;;;0.80;;
25341;SDS011;13298;48.792;9.154;2023-04-24T01:45:07;0.82;;;0.63;;
25341;SDS011;13298;48.792;9.154;2023-04-24T01:47:36;1.02;;;0.70;;
25341;SDS011;13298;48.792;9.154;2023-04-24T01:50:03;1.10;;;0.38;;
25341;SDS011;13298;48.792;9.154;2023-04-24T01:52:29;2.05;;;0.68;;
25341;SDS011;13298;48.792;9.154;2023-04-24T01:54:59;3.60;;;0.63;;
25341;SDS011;13298;48.792;9.154;2023-04-24T01:57:25;2.15;;;0.68;;
25341;SDS011;13298;48.792;9.154;2023-04-24T01:59:51;3.92;;;0.77;;
25341;SDS011;13298;48.792;9.154;2023-04-24T02:02:17;3.70;;;0.63;;
25341;SDS011;13298;48.792;9.154;2023-04-24T02:04:43;2.75;;;0.70;;
25341;SDS011;13298;48.792;9.154;2023-04-24T02:07:08;2.35;;;0.60;;
25341;SDS011;13298;48.792;9.154;2023-04-24T02:09:34;0.88;;;0.60;;
25341;SDS011;13298;48.792;9.154;2023-04-24T02:12:00;1.60;;;0.70;;
25341;SDS011;13298;48.792;9.154;2023-04-24T02:14:25;3.50;;;0.70;;
25341;SDS011;13298;48.792;9.154;2023-04-24T02:16:51;2.22;;;0.80;;
25341;SDS011;13298;48.792;9.154;2023-04-24T02:19:18;2.03;;;0.55;;
25341;SDS011;13298;48.792;9.154;2023-04-24T02:21:44;2.03;;;0.60;;
25341;SDS011;13298;48.792;9.154;2023-04-24T02:24:09;0.63;;;0.50;;
25341;SDS011;13298;48.792;9.154;2023-04-24T02:26:35;0.77;;;0.50;;
25341;SDS011;13298;48.792;9.154;2023-04-24T02:29:01;2.22;;;0.60;;
25341;SDS011;13298;48.792;9.154;2023-04-24T02:31:26;0.85;;;0.50;;
25341;SDS011;13298;48.792;9.154;2023-04-24T02:33:52;3.17;;;0.70;;
25341;SDS011;13298;48.792;9.154;2023-04-24T02:36:18;1.25;;;0.60;;
25341;SDS011;13298;48.792;9.154;2023-04-24T02:38:43;0.95;;;0.40;;
25341;SDS011;13298;48.792;9.154;2023-04-24T02:41:09;1.35;;;0.50;;
25341;SDS011;13298;48.792;9.154;2023-04-24T02:43:35;1.52;;;0.70;;
25341;SDS011;13298;48.792;9.154;2023-04-24T02:46:00;1.20;;;0.50;;
25341;SDS011;13298;48.792;9.154;2023-04-24T02:48:27;1.10;;;0.70;;
25341;SDS011;13298;48.792;9.154;2023-04-24T02:50:52;3.63;;;0.77;;
25341;SDS011;13298;48.792;9.154;2023-04-24T02:53:18;2.08;;;0.75;;
25341;SDS011;13298;48.792;9.154;2023-04-24T02:55:44;3.55;;;0.85;;
25341;SDS011;13298;48.792;9.154;2023-04-24T02:58:10;2.22;;;0.60;;
25341;SDS011;13298;48.792;9.154;2023-04-24T03:00:37;1.48;;;0.77;;
25341;SDS011;13298;48.792;9.154;2023-04-24T03:03:03;1.35;;;0.70;;
25341;SDS011;13298;48.792;9.154;2023-04-24T03:05:30;5.65;;;0.60;;
25341;SDS011;13298;48.792;9.154;2023-04-24T03:07:56;2.65;;;0.70;;
25341;SDS011;13298;48.792;9.154;2023-04-24T03:10:21;1.35;;;0.70;;
25341;SDS011;13298;48.792;9.154;2023-04-24T03:12:47;2.20;;;0.73;;
25341;SDS011;13298;48.792;9.154;2023-04-24T03:15:13;0.82;;;0.50;;
25341;SDS011;13298;48.792;9.154;2023-04-24T03:17:40;2.72;;;0.70;;
25341;SDS011;13298;48.792;9.154;2023-04-24T03:20:06;2.13;;;0.80;;
25341;SDS011;13298;48.792;9.154;2023-04-24T03:22:33;1.17;;;0.60;;
25341;SDS011;13298;48.792;9.154;2023-04-24T03:24:59;1.27;;;0.60;;
25341;SDS011;13298;48.792;9.154;2023-04-24T03:27:26;1.45;;;0.70;;
25341;SDS011;13298;48.792;9.154;2023-04-24T03:29:52;1.30;;;0.63;;
25341;SDS011;13298;48.792;9.154;2023-04-24T03:32:20;1.33;;;0.70;;
25341;SDS011;13298;48.792;9.154;2023-04-24T03:34:49;2.58;;;0.60;;
25341;SDS011;13298;48.792;9.154;2023-04-24T03:37:15;1.50;;;0.77;;
25341;SDS011;13298;48.792;9.154;2023-04-24T03:39:42;1.38;;;0.70;;
25341;SDS011;13298;48.792;9.154;2023-04-24T03:42:07;2.13;;;0.70;;
25341;SDS011;13298;48.792;9.154;2023-04-24T03:44:34;2.03;;;0.90;;
25341;SDS011;13298;48.792;9.154;2023-04-24T03:47:00;2.15;;;0.70;;
25341;SDS011;13298;48.792;9.154;2023-04-24T03:49:26;1.33;;;0.80;;
25341;SDS011;13298;48.792;9.154;2023-04-24T03:51:52;0.70;;;0.60;;
25341;SDS011;13298;48.792;9.154;2023-04-24T03:54:20;1.48;;;1.00;;
25341;SDS011;13298;48.792;9.154;2023-04-24T03:56:46;1.92;;;0.70;;
25341;SDS011;13298;48.792;9.154;2023-04-24T03:59:12;2.20;;;0.70;;
25341;SDS011;13298;48.792;9.154;2023-04-24T04:01:38;1.52;;;0.50;;
25341;SDS011;13298;48.792;9.154;2023-04-24T04:04:04;1.45;;;0.70;;
25341;SDS011;13298;48.792;9.154;2023-04-24T04:06:31;3.20;;;0.90;;
25341;SDS011;13298;48.792;9.154;2023-04-24T04:08:57;0.80;;;0.60;;
25341;SDS011;13298;48.792;9.154;2023-04-24T04:11:23;2.67;;;0.80;;
25341;SDS011;13298;48.792;9.154;2023-04-24T04:13:49;1.10;;;0.70;;
25341;SDS011;13298;48.792;9.154;2023-04-24T04:16:15;1.38;;;0.73;;
25341;SDS011;13298;48.792;9.154;2023-04-24T04:18:42;1.33;;;0.80;;
25341;SDS011;13298;48.792;9.154;2023-04-24T04:21:08;2.95;;;0.98;;
25341;SDS011;13298;48.792;9.154;2023-04-24T04:23:34;2.08;;;0.95;;
25341;SDS011;13298;48.792;9.154;2023-04-24T04:26:00;2.50;;;1.20;;
25341;SDS011;13298;48.792;9.154;2023-04-24T04:28:26;3.30;;;0.90;;
25341;SDS011;13298;48.792;9.154;2023-04-24T04:30:52;1.95;;;0.80;;
25341;SDS011;13298;48.792;9.154;2023-04-24T04:33:22;1.52;;;0.70;;
25341;SDS011;13298;48.792;9.154;2023-04-24T04:35:49;2.35;;;0.80;;
25341;SDS011;13298;48.792;9.154;2023-04-24T04:38:17;1.17;;;0.90;;
25341;SDS011;13298;48.792;9.154;2023-04-24T04:40:44;1.17;;;0.93;;
25341;SDS011;13298;48.792;9.154;2023-04-24T04:43:10;1.73;;;0.80;;
25341;SDS011;13298;48.792;9.154;2023-04-24T04:45:36;2.83;;;1.08;;
25341;SDS011;13298;48.792;9.154;2023-04-24T04:48:03;1.70;;;0.90;;
25341;SDS011;13298;48.792;9.154;2023-04-24T04:50:32;1.00;;;0.77;;
25341;SDS011;13298;48.792;9.154;2023-04-24T04:52:58;4.68;;;0.93;;
25341;SDS011;13298;48.792;9.154;2023-04-24T04:55:24;1.83;;;1.00;;
25341;SDS011;13298;48.792;9.154;2023-04-24T04:57:50;1.85;;;0.90;;
25341;SDS011;13298;48.792;9.154;2023-04-24T05:00:16;2.65;;;1.02;;
25341;SDS011;13298;48.792;9.154;2023-04-24T05:02:42;2.25;;;0.90;;
25341;SDS011;13298;48.792;9.154;2023-04-24T05:05:08;2.13;;;1.00;;
25341;SDS011;13298;48.792;9.154;2023-04-24T05:07:34;1.08;;;0.90;;
25341;SDS011;13298;48.792;9.154;2023-04-24T05:10:00;1.00;;;0.90;;
25341;SDS011;13298;48.792;9.154;2023-04-24T05:12:26;1.98;;;0.90;;
25341;SDS011;13298;48.792;9.154;2023-04-24T05:14:52;3.72;;;1.45;;
25341;SDS011;13298;48.792;9.154;2023-04-24T05:17:18;5.00;;;1.40;;
25341;SDS011;13298;48.792;9.154;2023-04-24T05:19:43;2.25;;;1.02;;
25341;SDS011;13298;48.792;9.154;2023-04-24T05:22:09;3.15;;;1.10;;
25341;SDS011;13298;48.792;9.154;2023-04-24T05:24:36;1.73;;;1.20;;
25341;SDS011;13298;48.792;9.154;2023-04-24T05:27:02;1.52;;;1.10;;
25341;SDS011;13298;48.792;9.154;2023-04-24T05:29:32;2.13;;;1.05;;
25341;SDS011;13298;48.792;9.154;2023-04-24T05:31:58;2.95;;;1.27;;
25341;SDS011;13298;48.792;9.154;2023-04-24T05:34:25;1.83;;;1.10;;
25341;SDS011;13298;48.792;9.154;2023-04-24T05:36:53;1.20;;;0.80;;
25341;SDS011;13298;48.792;9.154;2023-04-24T05:39:19;2.67;;;1.10;;
25341;SDS011;13298;48.792;9.154;2023-04-24T05:41:45;5.95;;;1.38;;
25341;SDS011;13298;48.792;9.154;2023-04-24T05:44:11;3.00;;;0.93;;
25341;SDS011;13298;48.792;9.154;2023-04-24T05:46:36;0.98;;;0.90;;
25341;SDS011;13298;48.792;9.154;2023-04-24T05:49:02;2.25;;;1.20;;
25341;SDS011;13298;48.792;9.154;2023-04-24T05:51:28;2.45;;;1.20;;
25341;SDS011;13298;48.792;9.154;2023-04-24T05:53:54;2.95;;;1.33;;
25341;SDS011;13298;48.792;9.154;2023-04-24T05:56:19;2.25;;;1.40;;
25341;SDS011;13298;48.792;9.154;2023-04-24T05:58:46;2.78;;;1.30;;
25341;SDS011;13298;48.792;9.154;2023-04-24T06:01:12;2.13;;;1.20;;
25341;SDS011;13298;48.792;9.154;2023-04-24T06:03:39;1.75;;;1.10;;
25341;SDS011;13298;48.792;9.154;2023-04-24T06:06:06;1.20;;;1.10;;
25341;SDS011;13298;48.792;9.154;2023-04-24T06:08:33;1.83;;;1.30;;
25341;SDS011;13298;48.792;9.154;2023-04-24T06:10:59;3.53;;;1.48;;
25341;SDS011;13298;48.792;9.154;2023-04-24T06:13:25;2.63;;;1.05;;
25341;SDS011;13298;48.792;9.154;2023-04-24T06:15:51;2.50;;;1.45;;
25341;SDS011;13298;48.792;9.154;2023-04-24T06:18:17;1.88;;;1.30;;
25341;SDS011;13298;48.792;9.154;2023-04-24T06:20:43;1.90;;;1.15;;
25341;SDS011;13298;48.792;9.154;2023-04-24T06:23:10;2.97;;;1.20;;
25341;SDS011;13298;48.792;9.154;2023-04-24T06:25:36;3.15;;;1.60;;
25341;SDS011;13298;48.792;9.154;2023-04-24T06:28:02;1.42;;;1.25;;
25341;SDS011;13298;48.792;9.154;2023-04-24T06:30:28;1.50;;;1.25;;
25341;SDS011;13298;48.792;9.154;2023-04-24T06:32:54;2.55;;;1.27;;
25341;SDS011;13298;48.792;9.154;2023-04-24T06:35:20;0.98;;;0.98;;
25341;SDS011;13298;48.792;9.154;2023-04-24T06:37:46;1.70;;;1.08;;
25341;SDS011;13298;48.792;9.154;2023-04-24T06:40:11;1.50;;;1.30;;
25341;SDS011;13298;48.792;9.154;2023-04-24T06:42:37;2.42;;;1.48;;
25341;SDS011;13298;48.792;9.154;2023-04-24T06:45:03;1.70;;;1.20;;
25341;SDS011;13298;48.792;9.154;2023-04-24T06:47:30;3.22;;;1.80;;
25341;SDS011;13298;48.792;9.154;2023-04-24T06:49:56;1.55;;;1.33;;
25341;SDS011;13298;48.792;9.154;2023-04-24T06:52:22;2.45;;;1.27;;
25341;SDS011;13298;48.792;9.154;2023-04-24T06:54:47;1.33;;;1.23;;
25341;SDS011;13298;48.792;9.154;2023-04-24T06:57:13;4.13;;;1.52;;
25341;SDS011;13298;48.792;9.154;2023-04-24T06:59:40;2.67;;;1.42;;
25341;SDS011;13298;48.792;9.154;2023-04-24T07:02:06;2.92;;;1.60;;
25341;SDS011;13298;48.792;9.154;2023-04-24T07:04:32;4.30;;;1.63;;
25341;SDS011;13298;48.792;9.154;2023-04-24T07:06:58;3.72;;;1.60;;
25341;SDS011;13298;48.792;9.154;2023-04-24T07:09:24;4.03;;;1.50;;
25341;SDS011;13298;48.792;9.154;2023-04-24T07:11:53;2.55;;;1.38;;
25341;SDS011;13298;48.792;9.154;2023-04-24T07:14:21;1.40;;;1.30;;
25341;SDS011;13298;48.792;9.154;2023-04-24T07:16:47;2.15;;;1.38;;
25341;SDS011;13298;48.792;9.154;2023-04-24T07:19:13;2.88;;;1.30;;
25341;SDS011;13298;48.792;9.154;2023-04-24T07:21:39;1.63;;;1.10;;
25341;SDS011;13298;48.792;9.154;2023-04-24T07:24:05;5.00;;;1.55;;
25341;SDS011;13298;48.792;9.154;2023-04-24T07:26:34;4.28;;;1.20;;
25341;SDS011;13298;48.792;9.154;2023-04-24T07:29:00;2.45;;;1.30;;
25341;SDS011;13298;48.792;9.154;2023-04-24T07:31:26;3.70;;;1.25;;
25341;SDS011;13298;48.792;9.154;2023-04-24T07:33:51;3.08;;;1.20;;
25341;SDS011;13298;48.792;9.154;2023-04-24T07:36:17;1.50;;;1.20;;
25341;SDS011;13298;48.792;9.154;2023-04-24T07:38:46;2.35;;;1.17;;
25341;SDS011;13298;48.792;9.154;2023-04-24T07:41:12;1.77;;;0.90;;
25341;SDS011;13298;48.792;9.154;2023-04-24T07:43:39;1.00;;;0.90;;
25341;SDS011;13298;48.792;9.154;2023-04-24T07:46:06;3.45;;;1.02;;
25341;SDS011;13298;48.792;9.154;2023-04-24T07:48:32;1.77;;;0.90;;
25341;SDS011;13298;48.792;9.154;2023-04-24T07:50:58;3.40;;;1.20;;
25341;SDS011;13298;48.792;9.154;2023-04-24T07:53:24;1.67;;;1.05;;
25341;SDS011;13298;48.792;9.154;2023-04-24T07:55:49;1.73;;;1.10;;
25341;SDS011;13298;48.792;9.154;2023-04-24T07:58:15;1.48;;;0.98;;
25341;SDS011;13298;48.792;9.154;2023-04-24T08:00:41;2.47;;;1.20;;
25341;SDS011;13298;48.792;9.154;2023-04-24T08:03:06;1.27;;;0.90;;
25341;SDS011;13298;48.792;9.154;2023-04-24T08:05:32;4.18;;;1.42;;
25341;SDS011;13298;48.792;9.154;2023-04-24T08:07:58;3.58;;;1.02;;
25341;SDS011;13298;48.792;9.154;2023-04-24T08:10:24;1.05;;;0.82;;
25341;SDS011;13298;48.792;9.154;2023-04-24T08:12:50;2.80;;;1.00;;
25341;SDS011;13298;48.792;9.154;2023-04-24T08:15:16;2.72;;;1.25;;
25341;SDS011;13298;48.792;9.154;2023-04-24T08:17:43;3.05;;;1.30;;
25341;SDS011;13298;48.792;9.154;2023-04-24T08:20:09;3.00;;;1.25;;
25341;SDS011;13298;48.792;9.154;2023-04-24T08:22:38;1.30;;;0.90;;
25341;SDS011;13298;48.792;9.154;2023-04-24T08:25:05;2.33;;;0.90;;
25341;SDS011;13298;48.792;9.154;2023-04-24T08:27:32;4.78;;;1.10;;
25341;SDS011;13298;48.792;9.154;2023-04-24T08:29:57;1.83;;;1.00;;
25341;SDS011;13298;48.792;9.154;2023-04-24T08:32:26;1.38;;;0.93;;
25341;SDS011;13298;48.792;9.154;2023-04-24T08:34:58;1.35;;;1.08;;
25341;SDS011;13298;48.792;9.154;2023-04-24T08:37:25;2.08;;;1.38;;
25341;SDS011;13298;48.792;9.154;2023-04-24T08:39:52;2.25;;;1.00;;
25341;SDS011;13298;48.792;9.154;2023-04-24T08:42:18;2.08;;;1.10;;
25341;SDS011;13298;48.792;9.154;2023-04-24T08:44:45;2.47;;;1.00;;
25341;SDS011;13298;48.792;9.154;2023-04-24T08:47:13;3.05;;;1.20;;
25341;SDS011;13298;48.792;9.154;2023-04-24T08:49:40;2.50;;;1.10;;
25341;SDS011;13298;48.792;9.154;2023-04-24T08:52:07;1.33;;;0.93;;
25341;SDS011;13298;48.792;9.154;2023-04-24T08:54:34;4.63;;;0.90;;
25341;SDS011;13298;48.792;9.154;2023-04-24T08:57:01;1.05;;;0.95;;
25341;SDS011;13298;48.792;9.154;2023-04-24T08:59:28;2.78;;;1.10;;
25341;SDS011;13298;48.792;9.154;2023-04-24T09:01:55;1.88;;;1.17;;
25341;SDS011;13298;48.792;9.154;2023-04-24T09:04:22;1.50;;;1.00;;
25341;SDS011;13298;48.792;9.154;2023-04-24T09:06:49;3.97;;;1.00;;
25341;SDS011;13298;48.792;9.154;2023-04-24T09:09:23;1.40;;;0.90;;
25341;SDS011;13298;48.792;9.154;2023-04-24T09:11:50;2.13;;;1.00;;
25341;SDS011;13298;48.792;9.154;2023-04-24T09:14:18;1.95;;;0.95;;
25341;SDS011;13298;48.792;9.154;2023-04-24T09:16:45;1.98;;;1.27;;
25341;SDS011;13298;48.792;9.154;2023-04-24T09:19:11;3.78;;;1.20;;
25341;SDS011;13298;48.792;9.154;2023-04-24T09:21:37;2.15;;;1.00;;
25341;SDS011;13298;48.792;9.154;2023-04-24T09:24:04;1.23;;;1.00;;
25341;SDS011;13298;48.792;9.154;2023-04-24T09:26:34;5.47;;;1.08;;
25341;SDS011;13298;48.792;9.154;2023-04-24T09:29:01;2.17;;;1.10;;
25341;SDS011;13298;48.792;9.154;2023-04-24T09:31:29;5.10;;;1.50;;
25341;SDS011;13298;48.792;9.154;2023-04-24T09:33:56;2.05;;;1.30;;
25341;SDS011;13298;48.792;9.154;2023-04-24T09:39:07;2.22;;;1.08;;
25341;SDS011;13298;48.792;9.154;2023-04-24T09:41:43;2.20;;;1.35;;
25341;SDS011;13298;48.792;9.154;2023-04-24T09:44:18;1.65;;;0.95;;
25341;SDS011;13298;48.792;9.154;2023-04-24T09:52:03;2.47;;;1.20;;
25341;SDS011;13298;48.792;9.154;2023-04-24T09:54:46;2.47;;;1.10;;
25341;SDS011;13298;48.792;9.154;2023-04-24T09:57:19;1.45;;;1.00;;
25341;SDS011;13298;48.792;9.154;2023-04-24T09:59:45;3.90;;;0.80;;
25341;SDS011;13298;48.792;9.154;2023-04-24T10:02:18;2.33;;;1.08;;
25341;SDS011;13298;48.792;9.154;2023-04-24T10:04:53;2.30;;;1.20;;
25341;SDS011;13298;48.792;9.154;2023-04-24T10:07:21;3.05;;;1.10;;
25341;SDS011;13298;48.792;9.154;2023-04-24T10:09:47;2.63;;;1.05;;
25341;SDS011;13298;48.792;9.154;2023-04-24T10:12:12;1.45;;;0.82;;
25341;SDS011;13298;48.792;9.154;2023-04-24T10:14:40;1.48;;;0.90;;
25341;SDS011;13298;48.792;9.154;2023-04-24T10:17:06;2.03;;;0.75;;
25341;SDS011;13298;48.792;9.154;2023-04-24T10:19:32;1.38;;;0.80;;
25341;SDS011;13298;48.792;9.154;2023-04-24T10:22:00;1.40;;;0.88;;
25341;SDS011;13298;48.792;9.154;2023-04-24T10:24:26;1.52;;;1.15;;
25341;SDS011;13298;48.792;9.154;2023-04-24T10:26:54;3.60;;;0.82;;
25341;SDS011;13298;48.792;9.154;2023-04-24T10:29:21;0.98;;;0.70;;
25341;SDS011;13298;48.792;9.154;2023-04-24T10:31:48;2.08;;;0.90;;
25341;SDS011;13298;48.792;9.154;2023-04-24T10:34:14;1.08;;;1.00;;
25341;SDS011;13298;48.792;9.154;2023-04-24T10:36:44;1.50;;;0.80;;
25341;SDS011;13298;48.792;9.154;2023-04-24T10:39:16;1.50;;;0.70;;
25341;SDS011;13298;48.792;9.154;2023-04-24T10:41:42;1.58;;;1.00;;
25341;SDS011;13298;48.792;9.154;2023-04-24T10:44:09;3.15;;;1.25;;
25341;SDS011;13298;48.792;9.154;2023-04-24T10:46:36;1.38;;;0.90;;
25341;SDS011;13298;48.792;9.154;2023-04-24T10:49:04;1.10;;;1.00;;
25341;SDS011;13298;48.792;9.154;2023-04-24T10:51:46;1.30;;;1.15;;
25341;SDS011;13298;48.792;9.154;2023-04-24T10:59:45;0.82;;;0.77;;
25341;SDS011;13298;48.792;9.154;2023-04-24T11:02:16;0.80;;;0.73;;
25341;SDS011;13298;48.792;9.154;2023-04-24T11:04:43;2.20;;;0.90;;
25341;SDS011;13298;48.792;9.154;2023-04-24T11:07:10;1.10;;;0.90;;
25341;SDS011;13298;48.792;9.154;2023-04-24T11:09:36;1.92;;;0.70;;
25341;SDS011;13298;48.792;9.154;2023-04-24T11:12:06;1.15;;;0.88;;
25341;SDS011;13298;48.792;9.154;2023-04-24T11:17:29;2.67;;;0.85;;
25341;SDS011;13298;48.792;9.154;2023-04-24T11:20:16;1.27;;;0.93;;
25341;SDS011;13298;48.792;9.154;2023-04-24T11:22:42;1.10;;;0.80;;
25341;SDS011;13298;48.792;9.154;2023-04-24T11:25:08;2.53;;;1.00;;
25341;SDS011;13298;48.792;9.154;2023-04-24T11:27:41;1.52;;;0.88;;
25341;SDS011;13298;48.792;9.154;2023-04-24T11:30:09;1.10;;;1.00;;
25341;SDS011;13298;48.792;9.154;2023-04-24T11:32:36;1.05;;;0.80;;
25341;SDS011;13298;48.792;9.154;2023-04-24T11:35:14;1.40;;;1.00;;
25341;SDS011;13298;48.792;9.154;2023-04-24T11:37:43;1.20;;;1.00;;
25341;SDS011;13298;48.792;9.154;2023-04-24T11:40:14;3.28;;;1.15;;
25341;SDS011;13298;48.792;9.154;2023-04-24T11:42:43;1.70;;;1.17;;
25341;SDS011;13298;48.792;9.154;2023-04-24T11:45:12;1.30;;;0.82;;
25341;SDS011;13298;48.792;9.154;2023-04-24T11:47:44;4.18;;;0.95;;
25341;SDS011;13298;48.792;9.154;2023-04-24T11:50:13;1.98;;;0.88;;
25341;SDS011;13298;48.792;9.154;2023-04-24T11:52:42;1.35;;;0.70;;
25341;SDS011;13298;48.792;9.154;2023-04-24T11:57:45;1.08;;;0.90;;
25341;SDS011;13298;48.792;9.154;2023-04-24T12:00:20;2.95;;;0.90;;
25341;SDS011;13298;48.792;9.154;2023-04-24T12:02:48;1.55;;;0.90;;
25341;SDS011;13298;48.792;9.154;2023-04-24T12:05:21;1.10;;;0.73;;
25341;SDS011;13298;48.792;9.154;2023-04-24T12:07:51;1.77;;;1.00;;
25341;SDS011;13298;48.792;9.154;2023-04-24T12:10:21;2.45;;;1.30;;
25341;SDS011;13298;48.792;9.154;2023-04-24T12:12:51;1.00;;;0.80;;
25341;SDS011;13298;48.792;9.154;2023-04-24T12:15:19;1.27;;;1.00;;
25341;SDS011;13298;48.792;9.154;2023-04-24T12:17:45;0.57;;;0.50;;
25341;SDS011;13298;48.792;9.154;2023-04-24T12:20:12;0.98;;;0.82;;
25341;SDS011;13298;48.792;9.154;2023-04-24T12:22:50;0.77;;;0.73;;
25341;SDS011;13298;48.792;9.154;2023-04-24T12:25:24;0.90;;;0.82;;
25341;SDS011;13298;48.792;9.154;2023-04-24T12:27:53;3.88;;;1.10;;
25341;SDS011;13298;48.792;9.154;2023-04-24T12:30:57;3.85;;;0.80;;
25341;SDS011;13298;48.792;9.154;2023-04-24T12:33:21;3.55;;;1.00;;
25341;SDS011;13298;48.792;9.154;2023-04-24T12:35:48;1.55;;;1.00;;
25341;SDS011;13298;48.792;9.154;2023-04-24T12:38:21;3.20;;;1.20;;
25341;SDS011;13298;48.792;9.154;2023-04-24T12:41:00;1.77;;;1.13;;
25341;SDS011;13298;48.792;9.154;2023-04-24T12:43:31;2.75;;;0.90;;
25341;SDS011;13298;48.792;9.154;2023-04-24T12:45:57;1.67;;;0.90;;
25341;SDS011;13298;48.792;9.154;2023-04-24T12:48:23;1.83;;;0.98;;
25341;SDS011;13298;48.792;9.154;2023-04-24T12:50:53;2.80;;;1.15;;
25341;SDS011;13298;48.792;9.154;2023-04-24T12:53:20;2.65;;;1.20;;
25341;SDS011;13298;48.792;9.154;2023-04-24T12:55:46;2.53;;;1.30;;
25341;SDS011;13298;48.792;9.154;2023-04-24T12:58:17;1.35;;;1.00;;
25341;SDS011;13298;48.792;9.154;2023-04-24T13:00:45;2.35;;;1.00;;
25341;SDS011;13298;48.792;9.154;2023-04-24T13:03:11;2.58;;;1.15;;
25341;SDS011;13298;48.792;9.154;2023-04-24T13:05:37;3.15;;;1.17;;
25341;SDS011;13298;48.792;9.154;2023-04-24T13:08:03;1.25;;;1.15;;
25341;SDS011;13298;48.792;9.154;2023-04-24T13:10:29;2.28;;;1.20;;
25341;SDS011;13298;48.792;9.154;2023-04-24T13:12:55;2.90;;;1.20;;
25341;SDS011;13298;48.792;9.154;2023-04-24T13:15:20;2.22;;;1.50;;
25341;SDS011;13298;48.792;9.154;2023-04-24T13:17:47;2.60;;;1.38;;
25341;SDS011;13298;48.792;9.154;2023-04-24T13:20:12;2.63;;;1.27;;
25341;SDS011;13298;48.792;9.154;2023-04-24T13:22:38;1.77;;;1.10;;
25341;SDS011;13298;48.792;9.154;2023-04-24T13:25:04;1.33;;;1.10;;
25341;SDS011;13298;48.792;9.154;2023-04-24T13:27:34;1.65;;;1.00;;
25341;SDS011;13298;48.792;9.154;2023-04-24T13:29:59;2.05;;;1.25;;
25341;SDS011;13298;48.792;9.154;2023-04-24T13:32:25;2.55;;;1.20;;
25341;SDS011;13298;48.792;9.154;2023-04-24T13:34:52;1.35;;;1.00;;
25341;SDS011;13298;48.792;9.154;2023-04-24T13:37:18;1.88;;;1.50;;
25341;SDS011;13298;48.792;9.154;2023-04-24T13:39:43;3.78;;;1.35;;
25341;SDS011;13298;48.792;9.154;2023-04-24T13:42:09;1.20;;;1.10;;
25341;SDS011;13298;48.792;9.154;2023-04-24T13:44:35;2.13;;;1.17;;
25341;SDS011;13298;48.792;9.154;2023-04-24T13:47:01;2.85;;;1.20;;
25341;SDS011;13298;48.792;9.154;2023-04-24T13:49:27;5.10;;;1.80;;
25341;SDS011;13298;48.792;9.154;2023-04-24T13:51:54;2.10;;;1.50;;
25341;SDS011;13298;48.792;9.154;2023-04-24T13:54:20;2.47;;;1.55;;
25341;SDS011;13298;48.792;9.154;2023-04-24T13:56:48;3.95;;;1.50;;
25341;SDS011;13298;48.792;9.154;2023-04-24T13:59:14;4.30;;;1.42;;
25341;SDS011;13298;48.792;9.154;2023-04-24T14:01:40;2.08;;;1.55;;
25341;SDS011;13298;48.792;9.154;2023-04-24T14:04:05;3.53;;;1.20;;
25341;SDS011;13298;48.792;9.154;2023-04-24T14:06:31;1.75;;;1.30;;
25341;SDS011;13298;48.792;9.154;2023-04-24T14:08:57;2.30;;;1.50;;
25341;SDS011;13298;48.792;9.154;2023-04-24T14:11:22;3.58;;;1.50;;
25341;SDS011;13298;48.792;9.154;2023-04-24T14:13:48;1.85;;;1.50;;
25341;SDS011;13298;48.792;9.154;2023-04-24T14:16:14;1.30;;;1.10;;
25341;SDS011;13298;48.792;9.154;2023-04-24T14:18:40;2.63;;;1.00;;
25341;SDS011;13298;48.792;9.154;2023-04-24T14:21:06;2.53;;;1.75;;
25341;SDS011;13298;48.792;9.154;2023-04-24T14:23:32;1.85;;;1.35;;
25341;SDS011;13298;48.792;9.154;2023-04-24T14:25:58;3.30;;;1.92;;
25341;SDS011;13298;48.792;9.154;2023-04-24T14:28:24;3.35;;;1.80;;
25341;SDS011;13298;48.792;9.154;2023-04-24T14:30:51;1.80;;;1.42;;
25341;SDS011;13298;48.792;9.154;2023-04-24T14:33:17;3.67;;;1.40;;
25341;SDS011;13298;48.792;9.154;2023-04-24T14:35:43;2.03;;;0.95;;
25341;SDS011;13298;48.792;9.154;2023-04-24T14:38:09;1.35;;;1.25;;
25341;SDS011;13298;48.792;9.154;2023-04-24T14:40:35;1.27;;;0.90;;
25341;SDS011;13298;48.792;9.154;2023-04-24T14:43:02;4.03;;;1.05;;
25341;SDS011;13298;48.792;9.154;2023-04-24T14:45:28;1.50;;;1.13;;
25341;SDS011;13298;48.792;9.154;2023-04-24T14:47:54;2.33;;;1.35;;
25341;SDS011;13298;48.792;9.154;2023-04-24T14:50:20;1.73;;;1.40;;
25341;SDS011;13298;48.792;9.154;2023-04-24T14:52:46;2.78;;;1.30;;
25341;SDS011;13298;48.792;9.154;2023-04-24T14:55:12;1.70;;;1.40;;
25341;SDS011;13298;48.792;9.154;2023-04-24T14:57:38;1.98;;;1.20;;
25341;SDS011;13298;48.792;9.154;2023-04-24T15:00:04;2.92;;;1.20;;
25341;SDS011;13298;48.792;9.154;2023-04-24T15:02:33;3.38;;;1.50;;
25341;SDS011;13298;48.792;9.154;2023-04-24T15:05:01;2.65;;;1.30;;